sensor_id;sensor_type;location;lat;lon;timestamp;P1;durP1;ratioP1;P2;durP2;ratioP2
46084;SDS011;31823;47.032;8.310;2023-08-20T00:00:10;15.00;;;8.20;;
46084;SDS011;31823;47.032;8.310;2023-08-20T00:02:36;15.82;;;7.88;;
46084;SDS011;31823;47.032;8.310;2023-08-20T00:05:03;9.52;;;7.38;;
46084;SDS011;31823;47.032;8.310;2023-08-20T00:07:29;9.35;;;7.45;;
46084;SDS011;31823;47.032;8.310;2023-08-20T00:09:56;13.10;;;7.82;;
46084;SDS011;31823;47.032;8.310;2023-08-20T00:12:21;11.43;;;7.07;;
46084;SDS011;31823;47.032;8.310;2023-08-20T00:14:54;14.05;;;6.85;;
46084;SDS011;31823;47.032;8.310;2023-08-20T00:17:35;13.50;;;7.53;;
46084;SDS011;31823;47.032;8.310;2023-08-20T00:20:03;14.95;;;8.10;;
46084;SDS011;31823;47.032;8.310;2023-08-20T00:22:37;12.63;;;7.20;;
46084;SDS011;31823;47.032;8.310;2023-08-20T00:25:04;9.88;;;6.65;;
46084;SDS011;31823;47.032;8.310;2023-08-20T00:27:30;10.73;;;7.68;;
46084;SDS011;31823;47.032;8.310;2023-08-20T00:29:56;10.93;;;6.95;;
46084;SDS011;31823;47.032;8.310;2023-08-20T00:32:21;11.57;;;6.95;;
46084;SDS011;31823;47.032;8.310;2023-08-20T00:34:47;11.85;;;7.15;;
46084;SDS011;31823;47.032;8.310;2023-08-20T00:37:13;11.50;;;6.57;;
46084;SDS011;31823;47.032;8.310;2023-08-20T00:39:38;11.70;;;7.05;;
46084;SDS011;31823;47.032;8.310;2023-08-20T00:42:04;12.93;;;8.23;;
46084;SDS011;31823;47.032;8.310;2023-08-20T00:44:30;10.32;;;7.13;;
46084;SDS011;31823;47.032;8.310;2023-08-20T00:46:56;12.23;;;7.68;;
46084;SDS011;31823;47.032;8.310;2023-08-20T00:49:23;10.77;;;8.18;;
46084;SDS011;31823;47.032;8.310;2023-08-20T00:51:49;9.40;;;7.10;;
46084;SDS011;31823;47.032;8.310;2023-08-20T00:54:15;13.65;;;7.85;;
46084;SDS011;31823;47.032;8.310;2023-08-20T00:56:41;15.77;;;7.97;;
46084;SDS011;31823;47.032;8.310;2023-08-20T00:59:07;13.93;;;8.52;;
46084;SDS011;31823;47.032;8.310;2023-08-20T01:01:33;12.23;;;8.05;;
46084;SDS011;31823;47.032;8.310;2023-08-20T01:03:58;13.52;;;7.93;;
46084;SDS011;31823;47.032;8.310;2023-08-20T01:11:53;24.85;;;9.30;;
46084;SDS011;31823;47.032;8.310;2023-08-20T01:14:22;16.55;;;9.25;;
46084;SDS011;31823;47.032;8.310;2023-08-20T01:16:48;12.48;;;8.57;;
46084;SDS011;31823;47.032;8.310;2023-08-20T01:19:16;12.13;;;8.85;;
46084;SDS011;31823;47.032;8.310;2023-08-20T01:21:47;15.73;;;8.25;;
46084;SDS011;31823;47.032;8.310;2023-08-20T01:25:04;12.85;;;8.32;;
46084;SDS011;31823;47.032;8.310;2023-08-20T01:27:26;11.93;;;7.72;;
46084;SDS011;31823;47.032;8.310;2023-08-20T01:30:14;20.50;;;8.27;;
46084;SDS011;31823;47.032;8.310;2023-08-20T01:32:40;14.82;;;8.05;;
46084;SDS011;31823;47.032;8.310;2023-08-20T01:35:11;12.40;;;8.32;;
46084;SDS011;31823;47.032;8.310;2023-08-20T01:37:38;13.15;;;7.70;;
46084;SDS011;31823;47.032;8.310;2023-08-20T01:40:05;16.50;;;8.20;;
46084;SDS011;31823;47.032;8.310;2023-08-20T01:42:33;15.00;;;8.05;;
46084;SDS011;31823;47.032;8.310;2023-08-20T01:44:58;16.58;;;8.30;;
46084;SDS011;31823;47.032;8.310;2023-08-20T01:47:24;12.48;;;8.55;;
46084;SDS011;31823;47.032;8.310;2023-08-20T01:49:49;13.18;;;8.27;;
46084;SDS011;31823;47.032;8.310;2023-08-20T01:52:15;17.08;;;8.10;;
46084;SDS011;31823;47.032;8.310;2023-08-20T01:54:41;13.95;;;8.25;;
46084;SDS011;31823;47.032;8.310;2023-08-20T01:57:06;14.55;;;8.60;;
46084;SDS011;31823;47.032;8.310;2023-08-20T01:59:32;14.82;;;8.43;;
46084;SDS011;31823;47.032;8.310;2023-08-20T02:01:57;17.90;;;8.73;;
46084;SDS011;31823;47.032;8.310;2023-08-20T02:04:23;16.10;;;8.30;;
46084;SDS011;31823;47.032;8.310;2023-08-20T02:06:48;12.73;;;8.23;;
46084;SDS011;31823;47.032;8.310;2023-08-20T02:09:14;14.15;;;8.57;;
46084;SDS011;31823;47.032;8.310;2023-08-20T02:11:39;16.27;;;8.10;;
46084;SDS011;31823;47.032;8.310;2023-08-20T02:14:05;11.07;;;7.80;;
46084;SDS011;31823;47.032;8.310;2023-08-20T02:16:30;12.93;;;7.80;;
46084;SDS011;31823;47.032;8.310;2023-08-20T02:18:56;15.70;;;8.80;;
46084;SDS011;31823;47.032;8.310;2023-08-20T02:21:21;13.07;;;8.10;;
46084;SDS011;31823;47.032;8.310;2023-08-20T02:23:47;11.25;;;7.97;;
46084;SDS011;31823;47.032;8.310;2023-08-20T02:26:13;14.73;;;8.65;;
46084;SDS011;31823;47.032;8.310;2023-08-20T02:28:40;10.85;;;7.60;;
46084;SDS011;31823;47.032;8.310;2023-08-20T02:31:05;17.02;;;7.32;;
46084;SDS011;31823;47.032;8.310;2023-08-20T02:33:31;11.98;;;7.85;;
46084;SDS011;31823;47.032;8.310;2023-08-20T02:36:03;11.75;;;7.13;;
46084;SDS011;31823;47.032;8.310;2023-08-20T02:38:29;12.40;;;7.20;;
46084;SDS011;31823;47.032;8.310;2023-08-20T02:40:54;17.23;;;7.75;;
46084;SDS011;31823;47.032;8.310;2023-08-20T02:43:20;14.95;;;7.22;;
46084;SDS011;31823;47.032;8.310;2023-08-20T02:45:46;14.57;;;7.38;;
46084;SDS011;31823;47.032;8.310;2023-08-20T02:48:11;13.10;;;7.53;;
46084;SDS011;31823;47.032;8.310;2023-08-20T02:50:38;14.65;;;7.53;;
46084;SDS011;31823;47.032;8.310;2023-08-20T02:53:04;13.93;;;7.93;;
46084;SDS011;31823;47.032;8.310;2023-08-20T02:55:30;12.77;;;7.78;;
46084;SDS011;31823;47.032;8.310;2023-08-20T02:57:56;14.55;;;8.20;;
46084;SDS011;31823;47.032;8.310;2023-08-20T03:00:22;11.45;;;7.50;;
46084;SDS011;31823;47.032;8.310;2023-08-20T03:02:47;13.88;;;7.28;;
46084;SDS011;31823;47.032;8.310;2023-08-20T03:05:13;18.98;;;7.70;;
46084;SDS011;31823;47.032;8.310;2023-08-20T03:07:39;11.80;;;7.72;;
46084;SDS011;31823;47.032;8.310;2023-08-20T03:10:05;10.85;;;7.57;;
46084;SDS011;31823;47.032;8.310;2023-08-20T03:12:31;16.55;;;8.00;;
46084;SDS011;31823;47.032;8.310;2023-08-20T03:14:56;15.82;;;7.75;;
46084;SDS011;31823;47.032;8.310;2023-08-20T03:17:25;13.80;;;7.93;;
46084;SDS011;31823;47.032;8.310;2023-08-20T03:19:54;17.42;;;8.35;;
46084;SDS011;31823;47.032;8.310;2023-08-20T03:22:24;12.23;;;7.70;;
46084;SDS011;31823;47.032;8.310;2023-08-20T03:24:51;13.68;;;7.57;;
46084;SDS011;31823;47.032;8.310;2023-08-20T03:27:17;13.73;;;8.43;;
46084;SDS011;31823;47.032;8.310;2023-08-20T03:29:43;11.65;;;7.95;;
46084;SDS011;31823;47.032;8.310;2023-08-20T03:32:09;13.55;;;8.00;;
46084;SDS011;31823;47.032;8.310;2023-08-20T03:34:35;13.30;;;7.93;;
46084;SDS011;31823;47.032;8.310;2023-08-20T03:37:01;11.95;;;8.05;;
46084;SDS011;31823;47.032;8.310;2023-08-20T03:39:27;12.20;;;7.95;;
46084;SDS011;31823;47.032;8.310;2023-08-20T03:41:52;15.85;;;8.93;;
46084;SDS011;31823;47.032;8.310;2023-08-20T03:44:18;11.07;;;7.72;;
46084;SDS011;31823;47.032;8.310;2023-08-20T03:46:44;12.85;;;7.97;;
46084;SDS011;31823;47.032;8.310;2023-08-20T03:49:10;12.82;;;8.32;;
46084;SDS011;31823;47.032;8.310;2023-08-20T03:51:35;10.95;;;7.68;;
46084;SDS011;31823;47.032;8.310;2023-08-20T03:54:01;10.77;;;8.38;;
46084;SDS011;31823;47.032;8.310;2023-08-20T03:56:27;17.30;;;8.45;;
46084;SDS011;31823;47.032;8.310;2023-08-20T03:58:53;12.07;;;8.13;;
46084;SDS011;31823;47.032;8.310;2023-08-20T04:01:19;16.90;;;8.52;;
46084;SDS011;31823;47.032;8.310;2023-08-20T04:03:47;15.93;;;8.02;;
46084;SDS011;31823;47.032;8.310;2023-08-20T04:06:13;18.23;;;9.30;;
46084;SDS011;31823;47.032;8.310;2023-08-20T04:08:39;14.38;;;8.02;;
46084;SDS011;31823;47.032;8.310;2023-08-20T04:11:04;13.50;;;8.13;;
46084;SDS011;31823;47.032;8.310;2023-08-20T04:13:30;12.73;;;8.30;;
46084;SDS011;31823;47.032;8.310;2023-08-20T04:15:56;14.02;;;8.02;;
46084;SDS011;31823;47.032;8.310;2023-08-20T04:18:22;15.07;;;8.20;;
46084;SDS011;31823;47.032;8.310;2023-08-20T04:20:49;15.25;;;8.15;;
46084;SDS011;31823;47.032;8.310;2023-08-20T04:23:16;12.57;;;7.80;;
46084;SDS011;31823;47.032;8.310;2023-08-20T04:25:41;13.05;;;7.80;;
46084;SDS011;31823;47.032;8.310;2023-08-20T04:28:07;16.95;;;8.43;;
46084;SDS011;31823;47.032;8.310;2023-08-20T04:30:34;13.57;;;7.95;;
46084;SDS011;31823;47.032;8.310;2023-08-20T04:33:00;11.00;;;7.80;;
46084;SDS011;31823;47.032;8.310;2023-08-20T04:35:26;13.85;;;7.72;;
46084;SDS011;31823;47.032;8.310;2023-08-20T04:37:52;15.57;;;7.40;;
46084;SDS011;31823;47.032;8.310;2023-08-20T04:40:17;11.57;;;7.97;;
46084;SDS011;31823;47.032;8.310;2023-08-20T04:42:43;15.63;;;7.88;;
46084;SDS011;31823;47.032;8.310;2023-08-20T04:45:08;14.45;;;7.85;;
46084;SDS011;31823;47.032;8.310;2023-08-20T04:47:35;10.32;;;8.05;;
46084;SDS011;31823;47.032;8.310;2023-08-20T04:50:01;15.88;;;7.93;;
46084;SDS011;31823;47.032;8.310;2023-08-20T04:52:26;9.50;;;7.80;;
46084;SDS011;31823;47.032;8.310;2023-08-20T04:54:52;15.13;;;8.35;;
46084;SDS011;31823;47.032;8.310;2023-08-20T04:57:17;11.25;;;7.85;;
46084;SDS011;31823;47.032;8.310;2023-08-20T04:59:43;12.63;;;7.88;;
46084;SDS011;31823;47.032;8.310;2023-08-20T05:02:10;14.25;;;7.90;;
46084;SDS011;31823;47.032;8.310;2023-08-20T05:04:37;13.02;;;8.50;;
46084;SDS011;31823;47.032;8.310;2023-08-20T05:07:03;13.80;;;8.20;;
46084;SDS011;31823;47.032;8.310;2023-08-20T05:09:29;11.63;;;8.52;;
46084;SDS011;31823;47.032;8.310;2023-08-20T05:11:55;14.40;;;8.43;;
46084;SDS011;31823;47.032;8.310;2023-08-20T05:14:20;12.20;;;7.95;;
46084;SDS011;31823;47.032;8.310;2023-08-20T05:16:46;15.40;;;8.57;;
46084;SDS011;31823;47.032;8.310;2023-08-20T05:19:11;13.60;;;7.93;;
46084;SDS011;31823;47.032;8.310;2023-08-20T05:21:37;11.50;;;8.23;;
46084;SDS011;31823;47.032;8.310;2023-08-20T05:24:03;13.63;;;8.43;;
46084;SDS011;31823;47.032;8.310;2023-08-20T05:26:28;12.25;;;8.77;;
46084;SDS011;31823;47.032;8.310;2023-08-20T05:28:54;12.25;;;8.57;;
46084;SDS011;31823;47.032;8.310;2023-08-20T05:31:20;19.55;;;9.23;;
46084;SDS011;31823;47.032;8.310;2023-08-20T05:33:46;13.63;;;8.55;;
46084;SDS011;31823;47.032;8.310;2023-08-20T05:36:11;14.52;;;8.25;;
46084;SDS011;31823;47.032;8.310;2023-08-20T05:38:37;12.65;;;8.43;;
46084;SDS011;31823;47.032;8.310;2023-08-20T05:41:02;19.80;;;8.60;;
46084;SDS011;31823;47.032;8.310;2023-08-20T05:43:28;16.38;;;8.25;;
46084;SDS011;31823;47.032;8.310;2023-08-20T05:45:53;12.25;;;9.10;;
46084;SDS011;31823;47.032;8.310;2023-08-20T05:48:19;12.65;;;8.10;;
46084;SDS011;31823;47.032;8.310;2023-08-20T05:50:45;11.38;;;8.40;;
46084;SDS011;31823;47.032;8.310;2023-08-20T05:53:11;13.98;;;7.68;;
46084;SDS011;31823;47.032;8.310;2023-08-20T05:55:37;15.20;;;8.18;;
46084;SDS011;31823;47.032;8.310;2023-08-20T05:58:03;16.98;;;9.73;;
46084;SDS011;31823;47.032;8.310;2023-08-20T06:00:28;13.93;;;10.02;;
46084;SDS011;31823;47.032;8.310;2023-08-20T06:02:54;14.43;;;8.40;;
46084;SDS011;31823;47.032;8.310;2023-08-20T06:05:19;15.77;;;7.45;;
46084;SDS011;31823;47.032;8.310;2023-08-20T06:07:45;15.20;;;8.95;;
46084;SDS011;31823;47.032;8.310;2023-08-20T06:10:10;12.35;;;7.97;;
46084;SDS011;31823;47.032;8.310;2023-08-20T06:12:36;16.27;;;7.65;;
46084;SDS011;31823;47.032;8.310;2023-08-20T06:15:02;16.23;;;8.60;;
46084;SDS011;31823;47.032;8.310;2023-08-20T06:17:28;14.18;;;8.20;;
46084;SDS011;31823;47.032;8.310;2023-08-20T06:19:54;12.00;;;8.55;;
46084;SDS011;31823;47.032;8.310;2023-08-20T06:22:20;13.10;;;7.88;;
46084;SDS011;31823;47.032;8.310;2023-08-20T06:24:45;14.23;;;8.80;;
46084;SDS011;31823;47.032;8.310;2023-08-20T06:27:11;13.38;;;7.88;;
46084;SDS011;31823;47.032;8.310;2023-08-20T06:29:36;9.55;;;7.35;;
46084;SDS011;31823;47.032;8.310;2023-08-20T06:32:02;9.95;;;8.05;;
46084;SDS011;31823;47.032;8.310;2023-08-20T06:34:28;14.27;;;8.50;;
46084;SDS011;31823;47.032;8.310;2023-08-20T06:36:53;11.27;;;8.05;;
46084;SDS011;31823;47.032;8.310;2023-08-20T06:39:19;13.77;;;8.35;;
46084;SDS011;31823;47.032;8.310;2023-08-20T06:41:45;12.40;;;7.88;;
46084;SDS011;31823;47.032;8.310;2023-08-20T06:44:11;18.40;;;8.85;;
46084;SDS011;31823;47.032;8.310;2023-08-20T06:46:36;15.05;;;9.40;;
46084;SDS011;31823;47.032;8.310;2023-08-20T06:49:02;10.70;;;7.60;;
46084;SDS011;31823;47.032;8.310;2023-08-20T06:51:28;10.63;;;8.20;;
46084;SDS011;31823;47.032;8.310;2023-08-20T06:53:53;15.73;;;8.52;;
46084;SDS011;31823;47.032;8.310;2023-08-20T06:56:22;12.10;;;7.53;;
46084;SDS011;31823;47.032;8.310;2023-08-20T06:58:47;11.63;;;8.13;;
46084;SDS011;31823;47.032;8.310;2023-08-20T07:01:13;13.82;;;7.78;;
46084;SDS011;31823;47.032;8.310;2023-08-20T07:03:39;14.63;;;8.35;;
46084;SDS011;31823;47.032;8.310;2023-08-20T07:06:06;10.93;;;8.35;;
46084;SDS011;31823;47.032;8.310;2023-08-20T07:08:34;11.95;;;7.85;;
46084;SDS011;31823;47.032;8.310;2023-08-20T07:10:59;13.93;;;8.35;;
46084;SDS011;31823;47.032;8.310;2023-08-20T07:13:25;12.93;;;8.68;;
46084;SDS011;31823;47.032;8.310;2023-08-20T07:15:50;11.25;;;8.32;;
46084;SDS011;31823;47.032;8.310;2023-08-20T07:18:16;10.40;;;7.85;;
46084;SDS011;31823;47.032;8.310;2023-08-20T07:20:42;11.95;;;8.05;;
46084;SDS011;31823;47.032;8.310;2023-08-20T07:23:08;11.48;;;8.15;;
46084;SDS011;31823;47.032;8.310;2023-08-20T07:25:37;11.90;;;8.27;;
46084;SDS011;31823;47.032;8.310;2023-08-20T07:28:07;15.73;;;8.18;;
46084;SDS011;31823;47.032;8.310;2023-08-20T07:30:33;11.18;;;8.15;;
46084;SDS011;31823;47.032;8.310;2023-08-20T07:32:59;10.13;;;7.97;;
46084;SDS011;31823;47.032;8.310;2023-08-20T07:35:25;13.70;;;8.82;;
46084;SDS011;31823;47.032;8.310;2023-08-20T07:37:50;11.18;;;8.02;;
46084;SDS011;31823;47.032;8.310;2023-08-20T07:40:16;12.75;;;8.25;;
46084;SDS011;31823;47.032;8.310;2023-08-20T07:42:42;13.65;;;9.30;;
46084;SDS011;31823;47.032;8.310;2023-08-20T07:45:08;14.63;;;8.23;;
46084;SDS011;31823;47.032;8.310;2023-08-20T07:47:37;9.98;;;7.85;;
46084;SDS011;31823;47.032;8.310;2023-08-20T07:50:03;13.73;;;8.07;;
46084;SDS011;31823;47.032;8.310;2023-08-20T07:52:30;9.68;;;7.75;;
46084;SDS011;31823;47.032;8.310;2023-08-20T07:54:56;15.02;;;8.52;;
46084;SDS011;31823;47.032;8.310;2023-08-20T07:57:21;15.98;;;9.02;;
46084;SDS011;31823;47.032;8.310;2023-08-20T07:59:48;14.27;;;7.85;;
46084;SDS011;31823;47.032;8.310;2023-08-20T08:02:14;12.57;;;8.02;;
46084;SDS011;31823;47.032;8.310;2023-08-20T08:04:40;13.20;;;7.72;;
46084;SDS011;31823;47.032;8.310;2023-08-20T08:07:06;10.77;;;7.38;;
46084;SDS011;31823;47.032;8.310;2023-08-20T08:09:32;12.88;;;7.43;;
46084;SDS011;31823;47.032;8.310;2023-08-20T08:11:58;11.02;;;7.22;;
46084;SDS011;31823;47.032;8.310;2023-08-20T08:14:24;9.55;;;7.18;;
46084;SDS011;31823;47.032;8.310;2023-08-20T08:16:50;9.00;;;7.00;;
46084;SDS011;31823;47.032;8.310;2023-08-20T08:19:16;8.43;;;7.00;;
46084;SDS011;31823;47.032;8.310;2023-08-20T08:21:43;13.88;;;8.00;;
46084;SDS011;31823;47.032;8.310;2023-08-20T08:24:10;13.52;;;6.72;;
46084;SDS011;31823;47.032;8.310;2023-08-20T08:26:36;12.85;;;7.25;;
46084;SDS011;31823;47.032;8.310;2023-08-20T08:29:02;12.63;;;7.30;;
46084;SDS011;31823;47.032;8.310;2023-08-20T08:31:28;14.40;;;7.15;;
46084;SDS011;31823;47.032;8.310;2023-08-20T08:33:54;9.50;;;7.10;;
46084;SDS011;31823;47.032;8.310;2023-08-20T08:36:19;10.63;;;7.50;;
46084;SDS011;31823;47.032;8.310;2023-08-20T08:38:45;11.50;;;6.82;;
46084;SDS011;31823;47.032;8.310;2023-08-20T08:41:11;12.82;;;7.95;;
46084;SDS011;31823;47.032;8.310;2023-08-20T08:43:38;9.18;;;7.55;;
46084;SDS011;31823;47.032;8.310;2023-08-20T08:46:08;14.57;;;7.38;;
46084;SDS011;31823;47.032;8.310;2023-08-20T08:48:41;10.02;;;7.47;;
46084;SDS011;31823;47.032;8.310;2023-08-20T08:51:08;12.88;;;7.47;;
46084;SDS011;31823;47.032;8.310;2023-08-20T08:53:35;10.07;;;6.97;;
46084;SDS011;31823;47.032;8.310;2023-08-20T08:56:01;15.20;;;7.30;;
46084;SDS011;31823;47.032;8.310;2023-08-20T08:58:27;12.80;;;8.77;;
46084;SDS011;31823;47.032;8.310;2023-08-20T09:00:54;12.98;;;9.25;;
46084;SDS011;31823;47.032;8.310;2023-08-20T09:03:20;12.88;;;8.48;;
46084;SDS011;31823;47.032;8.310;2023-08-20T09:05:49;14.05;;;8.70;;
46084;SDS011;31823;47.032;8.310;2023-08-20T09:08:19;11.05;;;7.70;;
46084;SDS011;31823;47.032;8.310;2023-08-20T09:10:51;11.60;;;8.43;;
46084;SDS011;31823;47.032;8.310;2023-08-20T09:13:18;13.55;;;8.23;;
46084;SDS011;31823;47.032;8.310;2023-08-20T09:15:51;12.98;;;8.27;;
46084;SDS011;31823;47.032;8.310;2023-08-20T09:18:17;16.42;;;8.20;;
46084;SDS011;31823;47.032;8.310;2023-08-20T09:20:43;14.48;;;9.02;;
46084;SDS011;31823;47.032;8.310;2023-08-20T09:23:12;12.70;;;8.88;;
46084;SDS011;31823;47.032;8.310;2023-08-20T09:25:38;11.48;;;8.82;;
46084;SDS011;31823;47.032;8.310;2023-08-20T09:28:04;11.60;;;9.25;;
46084;SDS011;31823;47.032;8.310;2023-08-20T09:30:30;12.32;;;9.10;;
46084;SDS011;31823;47.032;8.310;2023-08-20T09:33:11;11.13;;;8.73;;
46084;SDS011;31823;47.032;8.310;2023-08-20T09:35:48;10.60;;;8.70;;
46084;SDS011;31823;47.032;8.310;2023-08-20T09:38:14;14.93;;;8.85;;
46084;SDS011;31823;47.032;8.310;2023-08-20T09:40:43;10.60;;;8.40;;
46084;SDS011;31823;47.032;8.310;2023-08-20T09:43:10;15.15;;;9.25;;
46084;SDS011;31823;47.032;8.310;2023-08-20T09:45:40;12.27;;;8.05;;
46084;SDS011;31823;47.032;8.310;2023-08-20T09:48:07;11.68;;;8.43;;
46084;SDS011;31823;47.032;8.310;2023-08-20T09:50:36;12.75;;;8.77;;
46084;SDS011;31823;47.032;8.310;2023-08-20T09:53:12;18.25;;;10.05;;
46084;SDS011;31823;47.032;8.310;2023-08-20T09:55:44;11.38;;;8.75;;
46084;SDS011;31823;47.032;8.310;2023-08-20T09:58:11;9.07;;;7.95;;
46084;SDS011;31823;47.032;8.310;2023-08-20T10:00:41;9.27;;;8.32;;
46084;SDS011;31823;47.032;8.310;2023-08-20T10:03:07;12.15;;;8.65;;
46084;SDS011;31823;47.032;8.310;2023-08-20T10:05:34;9.82;;;8.30;;
46084;SDS011;31823;47.032;8.310;2023-08-20T10:08:00;12.30;;;8.32;;
46084;SDS011;31823;47.032;8.310;2023-08-20T10:10:27;12.25;;;8.02;;
46084;SDS011;31823;47.032;8.310;2023-08-20T10:12:53;10.50;;;7.72;;
46084;SDS011;31823;47.032;8.310;2023-08-20T10:15:21;11.57;;;7.43;;
46084;SDS011;31823;47.032;8.310;2023-08-20T10:17:49;10.02;;;8.02;;
46084;SDS011;31823;47.032;8.310;2023-08-20T10:20:15;10.52;;;7.38;;
46084;SDS011;31823;47.032;8.310;2023-08-20T10:22:42;10.95;;;8.00;;
46084;SDS011;31823;47.032;8.310;2023-08-20T10:25:10;11.25;;;7.78;;
46084;SDS011;31823;47.032;8.310;2023-08-20T10:27:38;9.45;;;7.32;;
46084;SDS011;31823;47.032;8.310;2023-08-20T10:30:09;13.48;;;7.65;;
46084;SDS011;31823;47.032;8.310;2023-08-20T10:32:50;10.70;;;7.97;;
46084;SDS011;31823;47.032;8.310;2023-08-20T10:35:26;11.27;;;7.93;;
46084;SDS011;31823;47.032;8.310;2023-08-20T10:38:26;9.00;;;7.18;;
46084;SDS011;31823;47.032;8.310;2023-08-20T10:46:08;9.50;;;7.03;;
46084;SDS011;31823;47.032;8.310;2023-08-20T10:51:17;14.05;;;7.78;;
46084;SDS011;31823;47.032;8.310;2023-08-20T10:53:48;12.55;;;6.78;;
46084;SDS011;31823;47.032;8.310;2023-08-20T10:59:07;11.82;;;7.72;;
46084;SDS011;31823;47.032;8.310;2023-08-20T11:01:55;9.35;;;7.30;;
46084;SDS011;31823;47.032;8.310;2023-08-20T11:04:23;9.88;;;7.35;;
46084;SDS011;31823;47.032;8.310;2023-08-20T11:06:54;12.57;;;7.03;;
46084;SDS011;31823;47.032;8.310;2023-08-20T11:09:21;10.27;;;7.35;;
46084;SDS011;31823;47.032;8.310;2023-08-20T11:11:51;13.00;;;7.78;;
46084;SDS011;31823;47.032;8.310;2023-08-20T11:14:18;13.90;;;7.97;;
46084;SDS011;31823;47.032;8.310;2023-08-20T11:16:44;10.35;;;7.10;;
46084;SDS011;31823;47.032;8.310;2023-08-20T11:19:11;13.15;;;7.20;;
46084;SDS011;31823;47.032;8.310;2023-08-20T11:21:38;8.77;;;7.00;;
46084;SDS011;31823;47.032;8.310;2023-08-20T11:24:05;12.35;;;7.40;;
46084;SDS011;31823;47.032;8.310;2023-08-20T11:26:31;10.13;;;7.57;;
46084;SDS011;31823;47.032;8.310;2023-08-20T11:29:01;10.60;;;7.63;;
46084;SDS011;31823;47.032;8.310;2023-08-20T11:31:30;12.85;;;7.38;;
46084;SDS011;31823;47.032;8.310;2023-08-20T11:33:56;11.85;;;7.88;;
46084;SDS011;31823;47.032;8.310;2023-08-20T11:36:22;8.35;;;7.18;;
46084;SDS011;31823;47.032;8.310;2023-08-20T11:38:49;9.75;;;8.15;;
46084;SDS011;31823;47.032;8.310;2023-08-20T11:41:17;9.55;;;7.50;;
46084;SDS011;31823;47.032;8.310;2023-08-20T11:43:43;11.48;;;8.57;;
46084;SDS011;31823;47.032;8.310;2023-08-20T11:46:12;12.10;;;7.30;;
46084;SDS011;31823;47.032;8.310;2023-08-20T11:48:58;12.63;;;7.35;;
46084;SDS011;31823;47.032;8.310;2023-08-20T11:51:40;9.57;;;7.28;;
46084;SDS011;31823;47.032;8.310;2023-08-20T11:54:08;13.95;;;8.15;;
46084;SDS011;31823;47.032;8.310;2023-08-20T11:56:43;16.48;;;7.20;;
46084;SDS011;31823;47.032;8.310;2023-08-20T11:59:11;14.10;;;7.65;;
46084;SDS011;31823;47.032;8.310;2023-08-20T12:01:37;11.05;;;6.88;;
46084;SDS011;31823;47.032;8.310;2023-08-20T12:04:06;10.65;;;7.72;;
46084;SDS011;31823;47.032;8.310;2023-08-20T12:06:33;9.38;;;7.55;;
46084;SDS011;31823;47.032;8.310;2023-08-20T12:09:00;9.80;;;7.30;;
46084;SDS011;31823;47.032;8.310;2023-08-20T12:11:27;10.70;;;7.57;;
46084;SDS011;31823;47.032;8.310;2023-08-20T12:13:53;10.77;;;6.57;;
46084;SDS011;31823;47.032;8.310;2023-08-20T12:16:21;11.35;;;7.38;;
46084;SDS011;31823;47.032;8.310;2023-08-20T12:18:48;9.63;;;7.57;;
46084;SDS011;31823;47.032;8.310;2023-08-20T12:21:14;11.30;;;7.10;;
46084;SDS011;31823;47.032;8.310;2023-08-20T12:23:40;15.65;;;7.72;;
46084;SDS011;31823;47.032;8.310;2023-08-20T12:26:06;10.55;;;7.55;;
46084;SDS011;31823;47.032;8.310;2023-08-20T12:28:32;9.82;;;7.57;;
46084;SDS011;31823;47.032;8.310;2023-08-20T12:30:58;10.57;;;7.32;;
46084;SDS011;31823;47.032;8.310;2023-08-20T12:33:24;14.02;;;7.80;;
46084;SDS011;31823;47.032;8.310;2023-08-20T12:35:49;9.30;;;7.20;;
46084;SDS011;31823;47.032;8.310;2023-08-20T12:38:15;17.38;;;7.80;;
46084;SDS011;31823;47.032;8.310;2023-08-20T12:40:41;10.73;;;7.10;;
46084;SDS011;31823;47.032;8.310;2023-08-20T12:43:06;9.05;;;6.90;;
46084;SDS011;31823;47.032;8.310;2023-08-20T12:45:32;11.15;;;7.75;;
46084;SDS011;31823;47.032;8.310;2023-08-20T12:47:57;9.38;;;7.60;;
46084;SDS011;31823;47.032;8.310;2023-08-20T12:50:23;13.20;;;7.63;;
46084;SDS011;31823;47.032;8.310;2023-08-20T12:52:50;9.02;;;7.43;;
46084;SDS011;31823;47.032;8.310;2023-08-20T12:55:16;11.45;;;7.07;;
46084;SDS011;31823;47.032;8.310;2023-08-20T12:57:55;11.75;;;7.50;;
46084;SDS011;31823;47.032;8.310;2023-08-20T13:00:22;10.65;;;7.57;;
46084;SDS011;31823;47.032;8.310;2023-08-20T13:02:49;11.50;;;7.60;;
46084;SDS011;31823;47.032;8.310;2023-08-20T13:05:16;12.27;;;7.22;;
46084;SDS011;31823;47.032;8.310;2023-08-20T13:07:41;8.77;;;7.18;;
46084;SDS011;31823;47.032;8.310;2023-08-20T13:10:07;13.07;;;7.32;;
46084;SDS011;31823;47.032;8.310;2023-08-20T13:12:34;8.88;;;7.03;;
46084;SDS011;31823;47.032;8.310;2023-08-20T13:15:00;9.48;;;6.93;;
46084;SDS011;31823;47.032;8.310;2023-08-20T13:17:28;10.32;;;8.90;;
46084;SDS011;31823;47.032;8.310;2023-08-20T13:19:54;11.48;;;7.13;;
46084;SDS011;31823;47.032;8.310;2023-08-20T13:22:21;10.82;;;7.30;;
46084;SDS011;31823;47.032;8.310;2023-08-20T13:24:46;10.75;;;7.45;;
46084;SDS011;31823;47.032;8.310;2023-08-20T13:27:12;9.43;;;7.70;;
46084;SDS011;31823;47.032;8.310;2023-08-20T13:29:38;10.88;;;7.40;;
46084;SDS011;31823;47.032;8.310;2023-08-20T13:32:05;10.82;;;7.00;;
46084;SDS011;31823;47.032;8.310;2023-08-20T13:34:31;11.63;;;6.93;;
46084;SDS011;31823;47.032;8.310;2023-08-20T13:36:57;10.50;;;7.10;;
46084;SDS011;31823;47.032;8.310;2023-08-20T13:39:22;7.45;;;6.63;;
46084;SDS011;31823;47.032;8.310;2023-08-20T13:41:48;8.95;;;6.88;;
46084;SDS011;31823;47.032;8.310;2023-08-20T13:44:15;9.95;;;6.65;;
46084;SDS011;31823;47.032;8.310;2023-08-20T13:46:40;9.50;;;6.70;;
46084;SDS011;31823;47.032;8.310;2023-08-20T13:49:06;13.00;;;7.60;;
46084;SDS011;31823;47.032;8.310;2023-08-20T13:51:32;11.45;;;7.00;;
46084;SDS011;31823;47.032;8.310;2023-08-20T13:53:57;9.73;;;6.57;;
46084;SDS011;31823;47.032;8.310;2023-08-20T13:56:23;7.70;;;6.90;;
46084;SDS011;31823;47.032;8.310;2023-08-20T13:58:50;12.30;;;7.38;;
46084;SDS011;31823;47.032;8.310;2023-08-20T14:01:16;11.75;;;7.07;;
46084;SDS011;31823;47.032;8.310;2023-08-20T14:03:42;9.85;;;7.60;;
46084;SDS011;31823;47.032;8.310;2023-08-20T14:06:07;12.25;;;7.22;;
46084;SDS011;31823;47.032;8.310;2023-08-20T14:08:33;13.68;;;7.05;;
46084;SDS011;31823;47.032;8.310;2023-08-20T14:10:58;9.30;;;6.20;;
46084;SDS011;31823;47.032;8.310;2023-08-20T14:13:24;11.23;;;7.03;;
46084;SDS011;31823;47.032;8.310;2023-08-20T14:15:49;12.23;;;6.68;;
46084;SDS011;31823;47.032;8.310;2023-08-20T14:18:15;8.38;;;6.68;;
46084;SDS011;31823;47.032;8.310;2023-08-20T14:20:40;12.02;;;6.90;;
46084;SDS011;31823;47.032;8.310;2023-08-20T14:23:06;8.40;;;6.53;;
46084;SDS011;31823;47.032;8.310;2023-08-20T14:25:31;11.18;;;6.85;;
46084;SDS011;31823;47.032;8.310;2023-08-20T14:27:57;8.95;;;6.75;;
46084;SDS011;31823;47.032;8.310;2023-08-20T14:30:23;11.10;;;6.50;;
46084;SDS011;31823;47.032;8.310;2023-08-20T14:32:48;11.07;;;7.07;;
46084;SDS011;31823;47.032;8.310;2023-08-20T14:35:14;9.25;;;6.90;;
46084;SDS011;31823;47.032;8.310;2023-08-20T14:37:39;11.23;;;7.40;;
46084;SDS011;31823;47.032;8.310;2023-08-20T14:40:05;8.40;;;6.80;;
46084;SDS011;31823;47.032;8.310;2023-08-20T14:42:32;11.02;;;6.95;;
46084;SDS011;31823;47.032;8.310;2023-08-20T14:44:58;9.52;;;6.70;;
46084;SDS011;31823;47.032;8.310;2023-08-20T14:47:23;7.38;;;6.43;;
46084;SDS011;31823;47.032;8.310;2023-08-20T14:49:49;12.45;;;6.88;;